Time;durP1;ratioP1;P1;durP2;ratioP2;P2;SDS_P1;SDS_P2;PMS_P1;PMS_P2;Temp;Humidity;BMP_temperature;BMP_pressure;BME280_temperature;BME280_humidity;BME280_pressure;Samples;Min_cycle;Max_cycle;Signal;HPM_P1;HPM_P2
2020/12/11 00:02:22;;;;;;;37.40;30.73;;;7.20;85.80;;;;;;5050994;28;20530;-45
2020/12/11 00:04:48;;;;;;;37.38;30.20;;;7.40;85.40;;;;;;5050785;28;20033;-50
2020/12/11 00:07:14;;;;;;;41.72;31.80;;;7.40;84.70;;;;;;5050668;28;20116;-44
2020/12/11 00:09:40;;;;;;;38.15;31.27;;;7.30;85.40;;;;;;5056132;28;20060;-49
2020/12/11 00:12:05;;;;;;;38.72;30.50;;;7.40;84.50;;;;;;5093417;28;20519;-48
2020/12/11 00:14:31;;;;;;;38.75;31.17;;;7.40;84.00;;;;;;5074437;28;20036;-47
2020/12/11 00:16:57;;;;;;;41.53;32.10;;;7.20;85.30;;;;;;5093088;28;20107;-53
2020/12/11 00:19:23;;;;;;;38.28;31.35;;;7.30;84.70;;;;;;5093103;28;20082;-46
2020/12/11 00:21:49;;;;;;;37.80;29.77;;;7.40;84.10;;;;;;5093231;28;20054;-48
2020/12/11 00:24:15;;;;;;;36.67;30.80;;;7.40;85.10;;;;;;5093107;28;20032;-42
2020/12/11 00:26:41;;;;;;;41.22;30.40;;;7.50;84.00;;;;;;5092956;28;20456;-47
2020/12/11 00:29:07;;;;;;;37.55;29.85;;;7.50;84.20;;;;;;5073848;28;20032;-50
2020/12/11 00:31:33;;;;;;;39.13;31.05;;;7.30;84.30;;;;;;5092729;28;20089;-45
2020/12/11 00:33:59;;;;;;;35.90;30.13;;;7.00;86.00;;;;;;5110006;28;20031;-47
2020/12/11 00:36:25;;;;;;;38.05;28.45;;;7.30;85.40;;;;;;5077268;28;20063;-52
2020/12/11 00:38:52;;;;;;;36.38;28.05;;;7.30;85.40;;;;;;5113224;28;20035;-48
2020/12/11 00:41:18;;;;;;;35.00;28.88;;;7.30;85.10;;;;;;5113436;28;20059;-45
2020/12/11 00:43:44;;;;;;;36.15;27.33;;;7.20;84.80;;;;;;5113490;28;20028;-47
2020/12/11 00:46:12;;;;;;;32.28;27.13;;;7.30;85.00;;;;;;5113386;28;20053;-47
2020/12/11 00:48:38;;;;;;;35.55;28.77;;;7.20;85.50;;;;;;5113315;28;20031;-48
2020/12/11 00:51:04;;;;;;;32.75;28.35;;;7.10;85.90;;;;;;5101257;28;20039;-49
2020/12/11 00:53:30;;;;;;;32.40;27.70;;;7.20;84.90;;;;;;5094299;28;20024;-46
2020/12/11 00:55:55;;;;;;;34.00;28.08;;;7.20;85.40;;;;;;5092948;28;20021;-49
2020/12/11 00:58:21;;;;;;;35.15;26.70;;;7.30;85.40;;;;;;5108634;28;20114;-46
2020/12/11 01:00:47;;;;;;;39.10;30.85;;;7.40;85.10;;;;;;5113326;28;20069;-54
2020/12/11 01:03:13;;;;;;;39.38;30.10;;;7.30;84.80;;;;;;5113199;28;20031;-42
2020/12/11 01:05:39;;;;;;;39.72;31.33;;;7.30;84.90;;;;;;5114081;28;20023;-47
2020/12/11 01:08:06;;;;;;;37.45;29.70;;;7.20;86.40;;;;;;5116755;28;20067;-47
2020/12/11 01:10:32;;;;;;;37.50;29.17;;;7.00;87.00;;;;;;5097347;28;20036;-47
2020/12/11 01:12:58;;;;;;;33.85;27.15;;;7.10;86.20;;;;;;5096533;28;20107;-48
2020/12/11 01:15:24;;;;;;;41.70;30.15;;;7.00;86.40;;;;;;5096329;28;20107;-43
2020/12/11 01:17:50;;;;;;;37.03;29.10;;;6.90;86.70;;;;;;5096192;28;20020;-51
2020/12/11 01:20:16;;;;;;;36.80;28.70;;;7.00;86.50;;;;;;5096331;28;20518;-47
2020/12/11 01:22:42;;;;;;;35.13;29.20;;;7.10;86.30;;;;;;5095900;28;20463;-46
2020/12/11 01:25:08;;;;;;;37.08;28.70;;;7.00;86.70;;;;;;5096182;28;20035;-43
2020/12/11 01:27:34;;;;;;;38.15;30.33;;;7.00;87.00;;;;;;5096077;28;20020;-50
2020/12/11 01:29:59;;;;;;;36.35;28.00;;;7.00;86.90;;;;;;5095955;28;20031;-47
2020/12/11 01:32:25;;;;;;;39.40;30.42;;;6.90;86.60;;;;;;5096319;28;20052;-49
2020/12/11 01:34:51;;;;;;;36.72;30.48;;;6.90;87.00;;;;;;5096166;28;20035;-48
2020/12/11 01:37:17;;;;;;;45.50;31.27;;;7.10;86.90;;;;;;5095928;28;20088;-47
2020/12/11 01:39:42;;;;;;;39.15;29.77;;;7.00;86.80;;;;;;5094536;28;20471;-52
2020/12/11 01:42:11;;;;;;;39.78;30.92;;;7.10;86.90;;;;;;5095857;28;20039;-49
2020/12/11 01:44:36;;;;;;;38.67;29.27;;;7.20;86.30;;;;;;5094228;28;20652;-49
2020/12/11 01:47:02;;;;;;;41.83;29.90;;;7.30;86.30;;;;;;5076641;28;20149;-47
2020/12/11 01:49:29;;;;;;;40.83;30.75;;;7.20;86.50;;;;;;5095915;28;20024;-45
2020/12/11 01:51:55;;;;;;;36.63;29.77;;;7.30;86.10;;;;;;5077177;28;20116;-46
2020/12/11 01:54:21;;;;;;;40.30;30.83;;;7.30;86.40;;;;;;5081009;28;20424;-46
2020/12/11 01:57:04;;;;;;;42.22;30.70;;;7.20;86.50;;;;;;5075091;28;20025;-50
2020/12/11 01:59:38;;;;;;;46.58;32.17;;;7.30;86.30;;;;;;5056055;28;20052;-49
2020/12/11 02:02:05;;;;;;;54.42;37.50;;;7.10;86.60;;;;;;5087390;28;20036;-47
2020/12/11 02:04:35;;;;;;;45.95;33.28;;;7.00;87.50;;;;;;5095278;28;20032;-46
2020/12/11 02:07:01;;;;;;;51.63;35.53;;;7.00;87.40;;;;;;5094930;28;20055;-46
2020/12/11 02:09:30;;;;;;;57.47;41.47;;;7.10;88.30;;;;;;5095076;28;20040;-47
2020/12/11 02:11:56;;;;;;;51.83;39.05;;;7.20;87.40;;;;;;5095050;28;20016;-50
2020/12/11 02:14:22;;;;;;;50.67;37.30;;;7.20;86.70;;;;;;5078814;28;20047;-49
2020/12/11 02:16:48;;;;;;;49.20;34.45;;;7.20;87.20;;;;;;5130966;27;20041;-46
2020/12/11 02:19:14;;;;;;;44.53;33.17;;;7.10;86.80;;;;;;5133859;27;20096;-45
2020/12/11 02:21:40;;;;;;;42.60;32.58;;;7.20;87.70;;;;;;5099091;27;20031;-53
2020/12/11 02:24:05;;;;;;;48.92;34.67;;;7.30;86.90;;;;;;5133754;27;20032;-44
2020/12/11 02:26:31;;;;;;;48.38;34.75;;;7.30;86.80;;;;;;5133593;27;20050;-45
2020/12/11 02:28:57;;;;;;;45.40;33.55;;;7.00;87.60;;;;;;5133321;27;20526;-47
2020/12/11 02:31:23;;;;;;;44.17;32.78;;;7.00;87.70;;;;;;5133732;27;20463;-51
2020/12/11 02:33:49;;;;;;;45.55;34.70;;;7.00;87.80;;;;;;5116251;27;20537;-46
2020/12/11 02:36:20;;;;;;;46.05;34.53;;;7.00;88.20;;;;;;5081593;27;20046;-48
2020/12/11 02:38:47;;;;;;;43.40;33.60;;;7.10;87.80;;;;;;5133244;27;20031;-49
2020/12/11 02:41:13;;;;;;;47.50;35.50;;;7.20;87.70;;;;;;5133511;27;20027;-49
2020/12/11 02:43:38;;;;;;;46.03;34.13;;;7.20;87.30;;;;;;5115475;27;20035;-48
2020/12/11 02:46:05;;;;;;;46.45;33.85;;;7.30;86.80;;;;;;5118803;27;20179;-47
2020/12/11 02:48:31;;;;;;;43.08;32.42;;;7.50;85.60;;;;;;5114908;28;20031;-50
2020/12/11 02:50:58;;;;;;;49.45;37.05;;;7.30;86.10;;;;;;5107152;28;20073;-50
2020/12/11 02:53:25;;;;;;;46.40;35.38;;;7.30;86.00;;;;;;5091621;28;20028;-44
2020/12/11 02:55:51;;;;;;;50.83;36.40;;;7.40;86.10;;;;;;5094339;28;20039;-51
2020/12/11 02:58:17;;;;;;;53.13;35.15;;;7.40;85.80;;;;;;5092404;28;20094;-48
2020/12/11 03:00:43;;;;;;;52.05;37.15;;;7.40;85.70;;;;;;5101737;28;20059;-47
2020/12/11 03:03:09;;;;;;;52.83;35.97;;;7.30;85.90;;;;;;5095689;28;20043;-49
2020/12/11 03:05:35;;;;;;;54.67;36.55;;;7.30;86.70;;;;;;5078759;28;20036;-51
2020/12/11 03:08:01;;;;;;;53.50;36.83;;;7.20;87.20;;;;;;5075188;28;20052;-51
2020/12/11 03:10:27;;;;;;;53.75;37.58;;;7.20;86.90;;;;;;5094198;28;20055;-49
2020/12/11 03:12:52;;;;;;;50.50;35.55;;;7.10;87.50;;;;;;5093817;28;20051;-45
2020/12/11 03:15:18;;;;;;;51.75;35.67;;;7.10;87.20;;;;;;5094449;28;20404;-49
2020/12/11 03:17:44;;;;;;;49.72;35.97;;;7.20;87.00;;;;;;5094391;28;20074;-45
2020/12/11 03:20:10;;;;;;;52.13;35.17;;;7.20;86.80;;;;;;5074916;28;20047;-48
2020/12/11 03:22:36;;;;;;;54.15;34.67;;;7.20;87.20;;;;;;5074978;28;20406;-46
2020/12/11 03:25:03;;;;;;;50.35;34.72;;;7.20;87.00;;;;;;5093968;28;20069;-49
2020/12/11 03:27:29;;;;;;;55.03;35.25;;;7.20;87.50;;;;;;5112817;28;20059;-48
2020/12/11 03:29:54;;;;;;;52.63;35.22;;;7.10;88.00;;;;;;5090952;28;20063;-49
2020/12/11 03:32:20;;;;;;;50.58;35.17;;;7.10;88.20;;;;;;5058044;28;20036;-52
2020/12/11 03:34:46;;;;;;;54.22;36.60;;;6.90;88.30;;;;;;5091075;28;20032;-51
2020/12/11 03:37:15;;;;;;;59.88;39.38;;;7.00;88.70;;;;;;5091203;28;20111;-48
2020/12/11 03:39:42;;;;;;;52.95;35.55;;;7.00;90.00;;;;;;5091023;28;20480;-50
2020/12/11 03:42:08;;;;;;;57.42;33.63;;;6.90;89.00;;;;;;5057537;28;20042;-46
2020/12/11 03:44:33;;;;;;;50.45;34.58;;;6.90;89.00;;;;;;5091381;28;20032;-50
2020/12/11 03:46:59;;;;;;;50.25;36.10;;;7.00;88.60;;;;;;5050936;28;20045;-43
2020/12/11 03:49:25;;;;;;;54.40;36.10;;;7.00;88.40;;;;;;5051022;28;20037;-51
2020/12/11 03:51:53;;;;;;;51.10;35.13;;;6.90;88.90;;;;;;5029708;28;20062;-51
2020/12/11 03:54:19;;;;;;;46.28;33.28;;;6.90;88.60;;;;;;4980155;28;20034;-50
2020/12/11 03:56:48;;;;;;;52.85;33.83;;;6.80;88.90;;;;;;4991443;28;20180;-47
2020/12/11 03:59:14;;;;;;;49.25;33.53;;;6.80;89.20;;;;;;4943013;28;20077;-48
2020/12/11 04:01:40;;;;;;;53.72;33.70;;;6.80;88.90;;;;;;5019942;28;20045;-48
2020/12/11 04:04:07;;;;;;;53.10;34.42;;;6.50;89.30;;;;;;4997832;28;20030;-50
2020/12/11 04:06:32;;;;;;;54.83;36.45;;;6.60;90.20;;;;;;5031095;28;20037;-46
2020/12/11 04:08:58;;;;;;;52.15;34.33;;;6.60;90.10;;;;;;5030789;28;20045;-54
2020/12/11 04:11:24;;;;;;;52.17;33.97;;;6.70;90.00;;;;;;5030942;28;20126;-47
2020/12/11 04:13:49;;;;;;;49.83;33.33;;;6.70;89.90;;;;;;4997909;28;20491;-47
2020/12/11 04:16:15;;;;;;;50.72;33.85;;;6.60;90.10;;;;;;5030772;28;20031;-45
2020/12/11 04:18:42;;;;;;;50.53;33.90;;;6.70;90.20;;;;;;5013528;28;20052;-50
2020/12/11 04:21:14;;;;;;;48.55;33.25;;;6.50;90.20;;;;;;5050656;28;20048;-48
2020/12/11 04:23:41;;;;;;;45.28;31.38;;;6.60;90.40;;;;;;5050885;28;20063;-48
2020/12/11 04:26:07;;;;;;;55.53;37.40;;;6.50;90.10;;;;;;5101800;28;20474;-44
2020/12/11 04:28:33;;;;;;;53.08;33.92;;;6.50;90.30;;;;;;5113499;28;20031;-49
2020/12/11 04:30:59;;;;;;;54.25;35.25;;;6.50;90.50;;;;;;5112519;28;20035;-49
2020/12/11 04:33:24;;;;;;;51.72;34.38;;;6.50;90.50;;;;;;5094750;28;20032;-48
2020/12/11 04:35:50;;;;;;;46.15;31.77;;;6.60;90.20;;;;;;5113478;28;20058;-49
2020/12/11 04:38:17;;;;;;;52.65;33.25;;;6.60;90.00;;;;;;5113436;28;20027;-47
2020/12/11 04:40:43;;;;;;;52.95;33.10;;;6.70;90.00;;;;;;5114386;28;20497;-51
2020/12/11 04:43:10;;;;;;;59.67;39.92;;;6.30;90.60;;;;;;5074011;28;20080;-50
2020/12/11 04:45:38;;;;;;;48.42;32.30;;;6.20;90.90;;;;;;5074526;28;20115;-49
2020/12/11 04:48:08;;;;;;;54.83;33.70;;;6.10;90.70;;;;;;5074622;28;20032;-48
2020/12/11 04:50:34;;;;;;;50.70;33.17;;;6.10;91.00;;;;;;5074401;28;20517;-42
2020/12/11 04:53:01;;;;;;;48.67;33.17;;;6.30;90.90;;;;;;5057659;28;20396;-46
2020/12/11 04:55:27;;;;;;;48.13;32.75;;;6.60;90.70;;;;;;5074045;28;20041;-48
2020/12/11 04:57:54;;;;;;;50.80;34.40;;;6.80;89.80;;;;;;5040522;28;20059;-47
2020/12/11 05:00:22;;;;;;;54.88;35.42;;;6.80;90.00;;;;;;5057597;28;20028;-48
2020/12/11 05:02:49;;;;;;;53.40;34.00;;;6.80;88.90;;;;;;5073969;28;20032;-49
2020/12/11 05:05:17;;;;;;;54.40;35.97;;;6.70;90.00;;;;;;5056640;28;20052;-47
2020/12/11 05:07:44;;;;;;;50.90;33.35;;;6.60;89.50;;;;;;5073778;28;20627;-46
2020/12/11 05:10:11;;;;;;;47.65;31.92;;;6.70;89.80;;;;;;5074115;28;20492;-45
2020/12/11 05:12:37;;;;;;;49.05;33.03;;;6.70;89.00;;;;;;5056135;28;20040;-44
2020/12/11 05:15:08;;;;;;;56.28;34.92;;;6.80;88.70;;;;;;5111598;28;20028;-51
2020/12/11 05:17:39;;;;;;;57.97;36.00;;;6.70;88.50;;;;;;5116930;27;20023;-53
2020/12/11 05:20:07;;;;;;;63.63;35.50;;;6.60;90.30;;;;;;5073255;28;20562;-47
2020/12/11 05:22:35;;;;;;;57.30;33.42;;;6.40;89.90;;;;;;5073579;28;20036;-47
2020/12/11 05:25:02;;;;;;;54.22;34.97;;;6.40;89.80;;;;;;5073825;28;20037;-47
2020/12/11 05:27:33;;;;;;;59.45;33.38;;;6.50;90.00;;;;;;5052959;28;20042;-46
2020/12/11 05:30:20;;;;;;;54.05;34.85;;;6.70;88.50;;;;;;5052603;28;20353;-42
2020/12/11 05:32:49;;;;;;;66.25;40.70;;;6.60;88.40;;;;;;5051764;28;20446;-52
2020/12/11 05:35:17;;;;;;;54.80;34.30;;;6.60;89.30;;;;;;5053254;28;20033;-50
2020/12/11 05:37:49;;;;;;;55.95;34.90;;;6.70;88.00;;;;;;5053450;28;20036;-47
2020/12/11 05:40:19;;;;;;;52.17;31.48;;;6.70;88.60;;;;;;5036364;28;20603;-48
2020/12/11 05:43:05;;;;;;;55.05;33.92;;;6.80;88.00;;;;;;5053216;28;20033;-47
2020/12/11 05:45:34;;;;;;;52.05;32.05;;;6.70;88.60;;;;;;5053331;28;20033;-47
2020/12/11 05:48:01;;;;;;;57.63;35.90;;;6.80;88.90;;;;;;5052999;28;20598;-48
2020/12/11 05:50:27;;;;;;;53.22;34.45;;;6.90;88.10;;;;;;5044624;28;20092;-52
2020/12/11 05:52:54;;;;;;;56.80;33.75;;;6.90;88.40;;;;;;5068492;28;20045;-50
2020/12/11 05:55:22;;;;;;;56.70;32.88;;;6.80;87.00;;;;;;5092965;28;20036;-49
2020/12/11 05:57:56;;;;;;;50.78;32.13;;;6.90;87.70;;;;;;5099591;28;20573;-46
2020/12/11 06:00:22;;;;;;;50.75;33.63;;;6.80;88.70;;;;;;5095981;28;20498;-52
2020/12/11 06:02:49;;;;;;;50.38;33.15;;;7.00;87.60;;;;;;5095286;28;20153;-51
2020/12/11 06:05:23;;;;;;;58.67;35.72;;;7.10;87.10;;;;;;5102973;28;20034;-44
2020/12/11 06:07:51;;;;;;;68.80;38.92;;;7.00;87.20;;;;;;5096565;28;20473;-47
2020/12/11 06:10:22;;;;;;;65.15;38.78;;;7.10;86.00;;;;;;5115648;28;20039;-49
2020/12/11 06:12:48;;;;;;;80.55;45.42;;;7.10;87.10;;;;;;5100129;28;20045;-45
2020/12/11 06:15:17;;;;;;;72.78;45.40;;;7.10;87.00;;;;;;5077155;28;20123;-49
2020/12/11 06:17:48;;;;;;;66.97;41.80;;;7.10;86.70;;;;;;5090206;28;20024;-47
2020/12/11 06:20:17;;;;;;;70.35;44.65;;;7.20;86.50;;;;;;5086140;28;20144;-49
2020/12/11 06:22:46;;;;;;;69.72;44.22;;;6.90;87.10;;;;;;5093751;28;20089;-48
2020/12/11 06:25:25;;;;;;;70.80;47.67;;;6.90;87.20;;;;;;5094992;28;20107;-47
2020/12/11 06:27:52;;;;;;;66.78;43.47;;;7.10;86.60;;;;;;5094975;28;20028;-48
2020/12/11 06:30:25;;;;;;;60.03;35.92;;;7.10;86.90;;;;;;5094913;28;20102;-49
2020/12/11 06:32:51;;;;;;;53.90;33.53;;;7.20;96.50;;;;;;5094845;28;20534;-54
2020/12/11 06:35:17;;;;;;;52.95;34.47;;;7.10;92.30;;;;;;5102513;28;20111;-49
2020/12/11 06:37:42;;;;;;;62.75;36.65;;;7.10;92.70;;;;;;5106295;28;20059;-50
2020/12/11 06:40:08;;;;;;;57.00;36.03;;;7.10;93.10;;;;;;5069760;28;20129;-49
2020/12/11 06:42:38;;;;;;;54.78;33.70;;;7.30;92.60;;;;;;5070612;28;20040;-51
2020/12/11 06:45:28;;;;;;;56.13;36.63;;;6.70;87.80;;;;;;5084634;28;20035;-51
2020/12/11 06:47:58;;;;;;;60.47;34.00;;;6.60;88.60;;;;;;5092265;28;20027;-50
2020/12/11 06:50:27;;;;;;;59.05;33.40;;;6.50;88.60;;;;;;5055596;28;20032;-50
2020/12/11 06:52:54;;;;;;;59.35;32.53;;;6.70;88.60;;;;;;5093490;28;20023;-49
2020/12/11 06:55:20;;;;;;;58.78;35.67;;;6.80;88.50;;;;;;5093317;28;20517;-50
2020/12/11 06:57:48;;;;;;;62.53;35.17;;;7.00;88.20;;;;;;5093414;28;20024;-49
2020/12/11 07:00:29;;;;;;;49.60;33.03;;;7.10;87.40;;;;;;5074198;28;20040;-50
2020/12/11 07:03:15;;;;;;;54.30;34.50;;;7.10;86.90;;;;;;5091987;28;20082;-49
2020/12/11 07:05:41;;;;;;;59.53;34.20;;;6.90;87.20;;;;;;5094261;28;20032;-53
2020/12/11 07:08:14;;;;;;;54.97;32.75;;;6.70;89.10;;;;;;5094189;28;20090;-51
2020/12/11 07:10:42;;;;;;;54.55;33.30;;;6.80;88.90;;;;;;5093923;28;20108;-50
2020/12/11 07:13:09;;;;;;;56.83;34.97;;;6.80;88.40;;;;;;5094110;28;20036;-49
2020/12/11 07:15:36;;;;;;;52.53;32.22;;;6.80;88.00;;;;;;5051539;28;20553;-50
2020/12/11 07:18:03;;;;;;;52.38;31.77;;;6.80;87.90;;;;;;5051315;28;20389;-52
2020/12/11 07:20:29;;;;;;;53.83;32.90;;;6.80;88.20;;;;;;5051456;28;20473;-48
2020/12/11 07:22:59;;;;;;;57.42;34.63;;;6.70;88.40;;;;;;5018061;28;20044;-48
2020/12/11 07:25:27;;;;;;;51.17;32.28;;;6.80;88.60;;;;;;5051405;28;20041;-48
2020/12/11 07:28:03;;;;;;;56.08;32.28;;;6.70;88.40;;;;;;5051433;28;20041;-50
2020/12/11 07:30:29;;;;;;;53.65;31.10;;;6.70;88.40;;;;;;5051500;28;20043;-49
2020/12/11 07:32:56;;;;;;;59.70;33.42;;;6.80;88.70;;;;;;5034502;28;20044;-48
2020/12/11 07:35:23;;;;;;;61.65;33.15;;;6.60;89.30;;;;;;5001632;28;20048;-51
2020/12/11 07:37:56;;;;;;;60.25;33.90;;;6.60;89.50;;;;;;5050630;28;20099;-50
2020/12/11 07:40:23;;;;;;;57.78;32.85;;;6.60;89.50;;;;;;5050043;28;20500;-49
2020/12/11 07:42:50;;;;;;;51.75;30.60;;;6.70;89.90;;;;;;5047923;28;20040;-48
2020/12/11 07:45:35;;;;;;;56.60;32.35;;;6.60;90.00;;;;;;5067308;28;20115;-50
2020/12/11 07:48:01;;;;;;;60.05;33.00;;;6.60;89.30;;;;;;5077693;28;20043;-48
2020/12/11 07:50:28;;;;;;;68.88;38.83;;;6.40;90.30;;;;;;5021574;28;20113;-46
2020/12/11 07:52:58;;;;;;;59.30;34.58;;;6.40;90.40;;;;;;5074845;28;20043;-51
2020/12/11 07:55:30;;;;;;;52.45;32.75;;;6.60;90.40;;;;;;5070859;28;20041;-50
2020/12/11 07:57:57;;;;;;;55.17;33.00;;;6.90;90.10;;;;;;5071129;28;20055;-48
2020/12/11 08:00:25;;;;;;;57.08;35.33;;;7.00;89.00;;;;;;5037655;28;20051;-47
2020/12/11 08:02:53;;;;;;;53.47;32.25;;;6.90;88.60;;;;;;5070793;28;20407;-53
2020/12/11 08:05:21;;;;;;;51.70;30.38;;;7.00;88.50;;;;;;5071076;28;20530;-51
2020/12/11 08:07:52;;;;;;;49.47;28.08;;;7.00;87.40;;;;;;5070754;28;20035;-51
2020/12/11 08:10:22;;;;;;;52.08;30.65;;;6.70;87.90;;;;;;5070917;28;20033;-51
2020/12/11 08:12:49;;;;;;;52.40;31.65;;;6.40;89.90;;;;;;5053770;28;20106;-51
2020/12/11 08:15:32;;;;;;;49.20;28.20;;;6.50;90.80;;;;;;5072984;28;20411;-53
2020/12/11 08:18:10;;;;;;;48.85;32.30;;;6.40;90.30;;;;;;5040854;28;20040;-45
2020/12/11 08:20:43;;;;;;;51.90;32.05;;;6.40;90.50;;;;;;5075190;28;20036;-48
2020/12/11 08:23:34;;;;;;;52.33;30.55;;;6.40;90.60;;;;;;5074889;28;20060;-49
2020/12/11 08:26:09;;;;;;;56.45;33.53;;;6.60;90.80;;;;;;5082546;28;20723;-43
2020/12/11 08:28:35;;;;;;;57.00;32.17;;;;;;;;;;5078766;28;20040;-50
2020/12/11 08:31:23;;;;;;;57.63;33.88;;;6.90;89.10;;;;;;5074426;28;20509;-47
2020/12/11 08:34:15;;;;;;;54.40;32.22;;;6.90;89.10;;;;;;5034703;28;20033;-47
2020/12/11 08:36:50;;;;;;;52.20;28.42;;;6.70;90.10;;;;;;4984506;28;20116;-45
2020/12/11 08:39:24;;;;;;;52.28;32.30;;;6.80;89.50;;;;;;5034413;28;20078;-45
2020/12/11 08:42:01;;;;;;;60.58;32.95;;;6.50;90.20;;;;;;5019076;28;20040;-49
2020/12/11 08:44:41;;;;;;;49.63;29.95;;;6.50;90.70;;;;;;5034675;28;20057;-47
2020/12/11 08:52:28;;;;;;;52.13;30.85;;;6.70;90.00;;;;;;5034422;28;20496;-46
2020/12/11 08:54:54;;;;;;;58.88;32.20;;;6.80;90.30;;;;;;5034427;28;20033;-48
2020/12/11 08:57:20;;;;;;;57.78;31.02;;;6.80;90.50;;;;;;5017752;28;20044;-50
2020/12/11 08:59:45;;;;;;;56.72;33.40;;;6.70;90.20;;;;;;5034104;28;20049;-53
2020/12/11 09:02:11;;;;;;;63.53;33.70;;;6.70;90.10;;;;;;5057355;28;20040;-47
2020/12/11 09:04:37;;;;;;;59.38;30.98;;;6.80;90.20;;;;;;5083793;28;20036;-50
2020/12/11 09:07:02;;;;;;;53.20;31.38;;;6.70;90.10;;;;;;5096475;28;20028;-46
2020/12/11 09:09:28;;;;;;;53.80;31.52;;;6.70;90.20;;;;;;5096572;28;20143;-47
2020/12/11 09:11:54;;;;;;;57.28;32.55;;;6.70;90.60;;;;;;5096846;28;20050;-50
2020/12/11 09:14:20;;;;;;;56.90;31.02;;;6.90;90.40;;;;;;5096645;28;20107;-52
2020/12/11 09:16:45;;;;;;;52.10;30.77;;;6.90;90.30;;;;;;5096610;28;20024;-49
2020/12/11 09:19:11;;;;;;;52.92;30.10;;;7.10;90.00;;;;;;5096405;28;20043;-50
2020/12/11 09:21:37;;;;;;;51.88;30.55;;;6.80;90.10;;;;;;5096873;28;20353;-46
2020/12/11 09:24:04;;;;;;;55.00;32.58;;;7.10;90.10;;;;;;5096221;28;20454;-44
2020/12/11 09:26:30;;;;;;;56.35;32.75;;;7.20;89.90;;;;;;5095464;28;20032;-44
2020/12/11 09:29:09;;;;;;;60.55;32.20;;;7.10;90.00;;;;;;5096410;28;20345;-50
2020/12/11 09:31:36;;;;;;;63.25;34.38;;;7.00;90.10;;;;;;5096205;28;20043;-50
2020/12/11 09:34:02;;;;;;;63.78;38.35;;;7.10;89.90;;;;;;5096261;28;20028;-46
2020/12/11 09:36:28;;;;;;;53.75;32.75;;;7.00;89.80;;;;;;5096177;28;20127;-46
2020/12/11 09:38:54;;;;;;;58.40;34.25;;;7.30;89.90;;;;;;5095725;28;20111;-45
2020/12/11 09:41:27;;;;;;;59.28;32.13;;;7.20;90.00;;;;;;5096289;28;20024;-47
2020/12/11 09:44:33;;;;;;;53.00;30.42;;;7.30;89.00;;;;;;5095994;28;20494;-49
2020/12/11 09:47:08;;;;;;;53.50;29.98;;;7.30;88.40;;;;;;5095986;27;20030;-50
2020/12/11 09:50:13;;;;;;;51.05;29.05;;;7.20;88.60;;;;;;5095872;28;20031;-51
2020/12/11 09:55:03;;;;;;;53.35;31.40;;;7.20;89.60;;;;;;5095840;28;20032;-52
2020/12/11 09:57:30;;;;;;;56.90;35.42;;;7.30;88.40;;;;;;5043283;28;20035;-51
2020/12/11 09:59:58;;;;;;;53.85;31.20;;;7.40;89.30;;;;;;5095418;28;20085;-47
2020/12/11 10:05:28;;;;;;;54.65;31.27;;;7.10;89.80;;;;;;5053093;28;20087;-43
2020/12/11 10:07:55;;;;;;;51.40;29.85;;;7.20;90.40;;;;;;5052819;28;20452;-48
2020/12/11 10:10:21;;;;;;;52.78;31.05;;;7.20;90.00;;;;;;5053030;28;20029;-49
2020/12/11 10:12:47;;;;;;;60.72;34.20;;;7.20;89.70;;;;;;5053030;28;20051;-44
2020/12/11 10:15:13;;;;;;;54.20;32.58;;;7.30;90.20;;;;;;5052729;28;20029;-46
2020/12/11 10:17:38;;;;;;;46.30;29.05;;;7.20;89.60;;;;;;5052765;28;20128;-50
2020/12/11 10:20:05;;;;;;;47.40;29.33;;;7.30;89.00;;;;;;5052550;28;20120;-50
2020/12/11 10:22:31;;;;;;;49.65;29.33;;;7.10;89.70;;;;;;5052573;28;20040;-47
2020/12/11 10:24:58;;;;;;;49.85;29.38;;;7.10;90.00;;;;;;5052700;28;20028;-52
2020/12/11 10:27:24;;;;;;;49.13;29.55;;;7.10;90.40;;;;;;5052907;28;20056;-49
2020/12/11 10:29:49;;;;;;;42.78;26.48;;;7.10;89.80;;;;;;5052407;28;20029;-48
2020/12/11 10:32:15;;;;;;;44.05;27.05;;;7.00;89.90;;;;;;5052523;28;20025;-49
2020/12/11 10:34:41;;;;;;;46.10;27.55;;;7.10;90.10;;;;;;5052648;28;20059;-47
2020/12/11 10:37:11;;;;;;;42.33;26.98;;;7.20;89.70;;;;;;5068216;28;20032;-51
2020/12/11 10:39:38;;;;;;;43.78;27.58;;;7.00;89.70;;;;;;5093765;28;20040;-47
2020/12/11 10:42:05;;;;;;;46.38;28.08;;;7.10;90.00;;;;;;5094748;28;20028;-44
2020/12/11 10:44:31;;;;;;;47.08;26.48;;;7.20;89.40;;;;;;5094622;28;20028;-46
2020/12/11 10:47:00;;;;;;;43.63;28.38;;;7.10;89.20;;;;;;5094631;28;20024;-47
2020/12/11 10:49:26;;;;;;;44.78;27.40;;;7.10;89.40;;;;;;5094882;28;20031;-46
2020/12/11 10:51:52;;;;;;;47.60;29.80;;;7.00;90.00;;;;;;5094424;28;20028;-48
2020/12/11 10:54:18;;;;;;;47.70;26.77;;;6.90;90.30;;;;;;5093591;28;20052;-50
2020/12/11 10:56:45;;;;;;;42.60;28.15;;;7.00;90.10;;;;;;5074562;28;20124;-51
2020/12/11 10:59:12;;;;;;;53.17;30.95;;;7.00;89.50;;;;;;5058035;28;20452;-45
2020/12/11 11:01:37;;;;;;;47.45;30.90;;;7.10;90.00;;;;;;5094431;28;20399;-51
2020/12/11 11:04:04;;;;;;;49.60;30.70;;;7.10;89.40;;;;;;5075519;28;20039;-49
2020/12/11 11:06:37;;;;;;;48.60;29.15;;;7.10;89.80;;;;;;5075595;28;20042;-46
2020/12/11 11:11:58;;;;;;;48.45;29.35;;;7.00;90.40;;;;;;5094435;28;20082;-44
2020/12/11 11:14:36;;;;;;;51.78;31.25;;;7.30;89.90;;;;;;5093442;28;20047;-46
2020/12/11 11:27:39;;;;;;;53.20;34.28;;;7.50;88.00;;;;;;5078356;28;20042;-51
2020/12/11 11:30:05;;;;;;;57.38;34.72;;;7.60;88.00;;;;;;5075589;28;20043;-50
2020/12/11 11:32:31;;;;;;;53.53;34.72;;;7.60;88.40;;;;;;5075050;28;20036;-54
2020/12/11 11:34:57;;;;;;;56.22;36.47;;;;;;;;;;5093870;28;20024;-46
2020/12/11 11:37:27;;;;;;;61.55;37.78;;;7.70;86.20;;;;;;5093600;28;20082;-48
2020/12/11 11:39:52;;;;;;;53.67;34.63;;;7.60;87.80;;;;;;5094060;28;20415;-48
2020/12/11 11:42:18;;;;;;;51.83;35.47;;;7.90;87.00;;;;;;5093798;28;20035;-50
2020/12/11 11:44:54;;;;;;;56.15;35.33;;;7.80;86.30;;;;;;5093590;28;20028;-48
2020/12/11 11:47:20;;;;;;;50.35;33.17;;;7.50;87.10;;;;;;5093826;28;20439;-49
2020/12/11 11:52:37;;;;;;;47.95;33.05;;;7.80;87.30;;;;;;5093785;28;20035;-50
2020/12/11 11:55:10;;;;;;;47.33;31.48;;;7.90;86.70;;;;;;5093653;28;20036;-44
2020/12/11 11:57:37;;;;;;;55.00;34.00;;;7.70;87.00;;;;;;5093792;28;20081;-45
2020/12/11 12:00:04;;;;;;;62.20;37.17;;;7.70;87.20;;;;;;5093242;28;20123;-44
2020/12/11 12:02:30;;;;;;;57.92;35.13;;;7.70;87.20;;;;;;5093392;28;20375;-47
2020/12/11 12:04:55;;;;;;;63.15;39.15;;;7.70;87.10;;;;;;5093697;28;20028;-47
2020/12/11 12:07:21;;;;;;;96.57;47.63;;;7.60;88.10;;;;;;5093305;28;20463;-54
2020/12/11 12:09:47;;;;;;;62.40;37.75;;;7.60;88.10;;;;;;5057536;28;20043;-42
2020/12/11 12:12:13;;;;;;;63.55;38.78;;;7.60;88.50;;;;;;5074540;28;20529;-44
2020/12/11 12:14:39;;;;;;;104.65;48.38;;;7.50;88.20;;;;;;5093306;28;20028;-46
2020/12/11 12:17:07;;;;;;;84.63;42.13;;;7.50;88.70;;;;;;5093365;28;20032;-49
2020/12/11 12:19:36;;;;;;;74.43;39.88;;;7.40;88.20;;;;;;5091230;28;20533;-46
2020/12/11 12:29:47;;;;;;;92.70;47.53;;;7.50;88.70;;;;;;5073475;28;20112;-48
2020/12/11 12:32:16;;;;;;;98.88;47.97;;;7.50;88.60;;;;;;5073296;28;20539;-51
2020/12/11 12:35:22;;;;;;;88.22;44.90;;;7.50;88.00;;;;;;5073021;28;20513;-46
2020/12/11 12:37:52;;;;;;;85.18;43.30;;;7.40;89.00;;;;;;5073052;28;20036;-48
2020/12/11 12:40:49;;;;;;;79.60;40.15;;;7.50;89.40;;;;;;5072871;28;20042;-48
2020/12/11 12:43:21;;;;;;;84.90;43.70;;;7.40;89.30;;;;;;5083873;28;20036;-45
2020/12/11 12:45:47;;;;;;;75.07;41.97;;;7.50;89.50;;;;;;5086925;28;20045;-43
2020/12/11 12:48:13;;;;;;;88.32;41.25;;;7.50;88.80;;;;;;5087547;28;20159;-43
2020/12/11 12:50:39;;;;;;;85.00;43.10;;;7.30;89.60;;;;;;5072589;28;20040;-46
2020/12/11 12:53:05;;;;;;;90.63;44.10;;;7.40;89.80;;;;;;5072977;28;20512;-43
2020/12/11 12:56:30;;;;;;;86.03;43.60;;;7.50;89.60;;;;;;5072875;28;20055;-45
2020/12/11 12:58:33;;;;;;;92.90;44.83;;;7.60;89.60;;;;;;5072553;28;20102;-48
2020/12/11 13:01:07;;;;;;;94.47;45.72;;;7.70;89.20;;;;;;5073040;28;20040;-43
2020/12/11 13:06:07;;;;;;;97.82;46.90;;;7.30;90.00;;;;;;5074308;28;20029;-46
2020/12/11 13:08:33;;;;;;;102.13;47.72;;;7.20;90.20;;;;;;5076230;28;20507;-46
2020/12/11 13:10:59;;;;;;;95.50;46.47;;;7.30;90.60;;;;;;5076447;28;20028;-43
2020/12/11 13:13:25;;;;;;;100.18;46.47;;;7.30;90.30;;;;;;5076253;28;20037;-47
2020/12/11 13:15:50;;;;;;;101.05;43.17;;;7.30;90.10;;;;;;5076368;28;20051;-46
2020/12/11 13:18:16;;;;;;;111.90;50.25;;;7.10;90.40;;;;;;5091179;28;20116;-47
2020/12/11 13:20:44;;;;;;;112.80;49.97;;;7.10;90.70;;;;;;5076342;28;20060;-47
2020/12/11 13:26:19;;;;;;;107.80;49.28;;;7.30;90.60;;;;;;5089282;28;20036;-45